createdAt,value
2023-03-13T00:00:22.313Z,12.67
2023-03-13T00:01:22.283Z,12.60
2023-03-13T00:02:22.391Z,12.60
2023-03-13T00:03:22.205Z,12.67
2023-03-13T00:04:22.172Z,12.61
2023-03-13T00:05:22.213Z,12.65
2023-03-13T00:06:22.101Z,12.60
2023-03-13T00:07:22.209Z,12.70
2023-03-13T00:08:22.029Z,12.64
2023-03-13T00:09:21.988Z,12.61
2023-03-13T00:10:21.958Z,12.68
2023-03-13T00:11:21.934Z,12.65
2023-03-13T00:12:22.030Z,12.62
2023-03-13T00:13:21.853Z,12.64
2023-03-13T00:14:21.815Z,12.62
2023-03-13T00:15:21.782Z,12.65
2023-03-13T00:16:21.791Z,12.70
2023-03-13T00:17:21.824Z,12.65
2023-03-13T00:18:21.674Z,12.64
2023-03-13T00:19:21.639Z,12.62
2023-03-13T00:20:21.604Z,12.65
2023-03-13T00:21:21.564Z,12.67
2023-03-13T00:22:21.545Z,12.67
2023-03-13T00:23:21.496Z,12.67
2023-03-13T00:24:21.460Z,12.68
2023-03-13T00:25:21.432Z,12.76
2023-03-13T00:26:21.389Z,12.73
2023-03-13T00:27:21.349Z,12.79
2023-03-13T00:28:21.319Z,12.79
2023-03-13T00:29:21.286Z,12.76
2023-03-13T00:30:21.244Z,12.83
2023-03-13T00:31:21.480Z,12.82
2023-03-13T00:32:21.224Z,12.82
2023-03-13T00:33:21.140Z,12.75
2023-03-13T00:34:21.099Z,12.73
2023-03-13T00:35:21.103Z,12.68
2023-03-13T00:36:21.037Z,12.76
2023-03-13T00:37:21.004Z,12.82
2023-03-13T00:38:20.966Z,12.75
2023-03-13T00:39:20.926Z,12.68
2023-03-13T00:40:20.891Z,12.79
2023-03-13T00:41:20.860Z,12.78
2023-03-13T00:42:20.816Z,12.79
2023-03-13T00:43:20.788Z,12.78
2023-03-13T00:44:20.749Z,12.82
2023-03-13T00:45:20.716Z,12.83
2023-03-13T00:46:20.726Z,12.82
2023-03-13T00:47:20.640Z,12.79
2023-03-13T00:48:20.602Z,12.83
2023-03-13T00:49:20.580Z,12.85
2023-03-13T00:50:20.537Z,12.79
2023-03-13T00:51:20.498Z,12.87
2023-03-13T00:52:20.477Z,12.83
2023-03-13T00:53:20.436Z,12.78
2023-03-13T00:54:20.405Z,12.83
2023-03-13T00:55:20.362Z,12.78
2023-03-13T00:56:20.338Z,12.78
2023-03-13T00:57:20.288Z,12.82
2023-03-13T00:58:20.253Z,12.78
2023-03-13T00:59:20.222Z,12.78
2023-03-13T01:00:20.187Z,12.83
2023-03-13T01:01:20.151Z,12.78
2023-03-13T01:02:20.264Z,12.82
2023-03-13T01:03:20.237Z,12.79
2023-03-13T01:04:20.075Z,12.90
2023-03-13T01:05:20.016Z,12.85
2023-03-13T01:06:19.983Z,12.79
2023-03-13T01:07:19.947Z,12.79
2023-03-13T01:08:19.901Z,12.83
2023-03-13T01:09:19.875Z,12.79
2023-03-13T01:10:19.850Z,12.79
2023-03-13T01:11:19.819Z,12.91
2023-03-13T01:12:19.764Z,12.83
2023-03-13T01:13:19.736Z,12.79
2023-03-13T01:14:19.694Z,12.86
2023-03-13T01:15:19.675Z,12.83
2023-03-13T01:16:19.676Z,12.79
2023-03-13T01:17:19.598Z,12.79
2023-03-13T01:18:19.583Z,12.80
2023-03-13T01:19:19.522Z,12.87
2023-03-13T01:20:19.488Z,12.85
2023-03-13T01:21:19.454Z,12.90
2023-03-13T01:22:19.415Z,12.82
2023-03-13T01:23:19.390Z,12.94
2023-03-13T01:24:19.346Z,12.87
2023-03-13T01:25:19.326Z,12.83
2023-03-13T01:26:19.295Z,12.83
2023-03-13T01:27:19.247Z,12.79
2023-03-13T01:28:19.215Z,12.85
2023-03-13T01:29:19.180Z,12.91
2023-03-13T01:30:19.136Z,12.85
2023-03-13T01:31:19.176Z,12.91
2023-03-13T01:32:19.096Z,12.95
2023-03-13T01:33:19.031Z,12.98
2023-03-13T01:34:19.009Z,12.97
2023-03-13T01:35:18.994Z,12.95
2023-03-13T01:36:18.943Z,12.94
2023-03-13T01:37:18.895Z,12.86
2023-03-13T01:38:18.851Z,12.98
2023-03-13T01:39:18.819Z,12.95
2023-03-13T01:40:18.792Z,12.98
2023-03-13T01:41:18.754Z,13.00
2023-03-13T01:42:18.716Z,12.95
2023-03-13T01:43:26.414Z,13.00
2023-03-13T01:44:18.638Z,12.98
2023-03-13T01:45:18.606Z,13.01
2023-03-13T01:46:18.724Z,12.90
2023-03-13T01:47:18.538Z,12.91
2023-03-13T01:48:18.503Z,12.97
2023-03-13T01:49:18.512Z,12.95
2023-03-13T01:50:18.430Z,12.98
2023-03-13T01:51:18.398Z,13.05
2023-03-13T01:52:18.365Z,13.00
2023-03-13T01:53:18.329Z,12.95
2023-03-13T01:54:18.298Z,12.95
2023-03-13T01:55:18.261Z,12.97
2023-03-13T01:56:18.218Z,12.98
2023-03-13T01:57:18.184Z,13.05
2023-03-13T01:58:18.159Z,12.97
2023-03-13T01:59:18.115Z,13.00
2023-03-13T02:00:18.084Z,12.98
2023-03-13T02:01:18.117Z,12.98
2023-03-13T02:02:18.007Z,12.94
2023-03-13T02:03:17.975Z,12.93
2023-03-13T02:04:17.939Z,13.00
2023-03-13T02:05:17.911Z,13.00
2023-03-13T02:06:17.886Z,13.00
2023-03-13T02:07:17.840Z,12.93
2023-03-13T02:08:17.804Z,12.94
2023-03-13T02:09:17.765Z,12.87
2023-03-13T02:10:17.725Z,12.87
2023-03-13T02:11:17.689Z,12.86
2023-03-13T02:12:17.657Z,12.97
2023-03-13T02:13:17.650Z,12.76
2023-03-13T02:14:17.589Z,12.90
2023-03-13T02:15:17.547Z,12.87
2023-03-13T02:16:17.556Z,12.95
2023-03-13T02:17:17.479Z,12.95
2023-03-13T02:18:17.443Z,12.98
2023-03-13T02:19:17.411Z,12.93
2023-03-13T02:20:17.377Z,12.94
2023-03-13T02:21:17.334Z,12.90
2023-03-13T02:22:17.302Z,12.94
2023-03-13T02:23:19.275Z,12.90
2023-03-13T02:24:17.230Z,12.80
2023-03-13T02:25:17.192Z,12.83
2023-03-13T02:26:17.162Z,12.79
2023-03-13T02:27:17.121Z,12.78
2023-03-13T02:28:17.089Z,12.68
2023-03-13T02:29:17.052Z,12.64
2023-03-13T02:30:17.025Z,12.58
2023-03-13T02:31:17.013Z,12.49
2023-03-13T02:32:16.980Z,12.67
2023-03-13T02:33:16.907Z,12.65
2023-03-13T02:34:16.894Z,12.47
2023-03-13T02:35:16.873Z,12.55
2023-03-13T02:36:16.804Z,12.49
2023-03-13T02:37:16.765Z,12.50
2023-03-13T02:38:16.739Z,12.50
2023-03-13T02:39:16.694Z,12.50
2023-03-13T02:40:16.662Z,12.39
2023-03-13T02:41:16.626Z,12.39
2023-03-13T02:42:16.589Z,12.36
2023-03-13T02:43:16.555Z,12.47
2023-03-13T02:44:16.519Z,12.40
2023-03-13T02:45:16.491Z,12.37
2023-03-13T02:46:16.501Z,12.35
2023-03-13T02:47:16.417Z,12.37
2023-03-13T02:48:16.377Z,12.37
2023-03-13T02:49:16.343Z,12.40
2023-03-13T02:50:16.303Z,12.35
2023-03-13T02:51:16.267Z,12.39
2023-03-13T02:52:16.237Z,12.47
2023-03-13T02:53:16.208Z,12.42
2023-03-13T02:54:16.168Z,12.35
2023-03-13T02:55:16.130Z,12.39
2023-03-13T02:56:16.095Z,12.39
2023-03-13T02:57:16.057Z,12.46
2023-03-13T02:58:16.025Z,12.50
2023-03-13T02:59:15.993Z,12.42
2023-03-13T03:00:15.952Z,12.53
2023-03-13T03:01:15.932Z,12.43
2023-03-13T03:02:15.885Z,12.47
2023-03-13T03:03:15.859Z,12.50
2023-03-13T03:04:15.906Z,12.53
2023-03-13T03:05:15.770Z,12.40
2023-03-13T03:06:15.741Z,12.53
2023-03-13T03:07:15.711Z,12.53
2023-03-13T03:08:15.667Z,12.45
2023-03-13T03:09:15.631Z,12.53
2023-03-13T03:10:15.602Z,12.61
2023-03-13T03:11:15.557Z,12.61
2023-03-13T03:12:15.528Z,12.61
2023-03-13T03:13:15.485Z,12.60
2023-03-13T03:14:15.465Z,12.64
2023-03-13T03:15:15.417Z,12.60
2023-03-13T03:16:15.486Z,12.64
2023-03-13T03:17:15.346Z,12.58
2023-03-13T03:18:15.326Z,12.62
2023-03-13T03:19:15.274Z,12.60
2023-03-13T03:20:15.241Z,12.67
2023-03-13T03:21:15.206Z,12.68
2023-03-13T03:22:15.167Z,12.75
2023-03-13T03:23:15.133Z,12.70
2023-03-13T03:24:15.091Z,12.65
2023-03-13T03:25:15.062Z,12.73
2023-03-13T03:26:15.019Z,12.79
2023-03-13T03:27:14.986Z,12.80
2023-03-13T03:28:14.951Z,12.83
2023-03-13T03:29:14.918Z,12.86
2023-03-13T03:30:14.880Z,12.80
2023-03-13T03:31:14.911Z,12.87
2023-03-13T03:32:14.823Z,12.85
2023-03-13T03:33:14.768Z,12.86
2023-03-13T03:34:14.747Z,12.87
2023-03-13T03:35:14.700Z,12.95
2023-03-13T03:36:14.728Z,12.91
2023-03-13T03:37:14.627Z,12.87
2023-03-13T03:38:14.594Z,12.91
2023-03-13T03:39:14.553Z,12.90
2023-03-13T03:40:14.517Z,12.86
2023-03-13T03:41:14.486Z,12.90
2023-03-13T03:42:14.449Z,12.97
2023-03-13T03:43:14.444Z,12.98
2023-03-13T03:44:14.383Z,12.91
2023-03-13T03:45:14.351Z,13.01
2023-03-13T03:46:14.412Z,12.98
2023-03-13T03:47:14.351Z,12.97
2023-03-13T03:48:14.239Z,13.03
2023-03-13T03:49:14.205Z,13.04
2023-03-13T03:50:14.307Z,13.03
2023-03-13T03:51:14.147Z,13.15
2023-03-13T03:52:14.098Z,13.03
2023-03-13T03:53:14.058Z,13.05
2023-03-13T03:54:14.028Z,13.05
2023-03-13T03:55:13.996Z,13.12
2023-03-13T03:56:13.963Z,13.08
2023-03-13T03:57:13.921Z,13.05
2023-03-13T03:58:13.891Z,13.13
2023-03-13T03:59:13.877Z,13.13
2023-03-13T04:00:13.821Z,13.08
2023-03-13T04:01:13.799Z,13.12
2023-03-13T04:02:13.827Z,13.19
2023-03-13T04:03:13.740Z,13.19
2023-03-13T04:04:13.681Z,13.22
2023-03-13T04:05:13.651Z,13.16
2023-03-13T04:06:13.624Z,13.20
2023-03-13T04:07:13.605Z,13.22
2023-03-13T04:08:13.540Z,13.20
2023-03-13T04:09:13.504Z,13.33
2023-03-13T04:10:13.466Z,13.19
2023-03-13T04:11:13.435Z,13.28
2023-03-13T04:12:13.400Z,13.33
2023-03-13T04:13:13.369Z,13.27
2023-03-13T04:14:13.339Z,13.35
2023-03-13T04:15:13.317Z,13.28
2023-03-13T04:16:13.297Z,13.25
2023-03-13T04:17:13.223Z,13.28
2023-03-13T04:18:13.201Z,13.27
2023-03-13T04:19:13.153Z,13.30
2023-03-13T04:20:13.121Z,13.18
2023-03-13T04:21:13.084Z,13.33
2023-03-13T04:22:13.050Z,13.33
2023-03-13T04:23:13.016Z,13.33
2023-03-13T04:24:12.978Z,13.41
2023-03-13T04:25:12.945Z,13.38
2023-03-13T04:26:12.906Z,13.30
2023-03-13T04:27:12.877Z,13.30
2023-03-13T04:28:12.840Z,13.38
2023-03-13T04:29:12.807Z,13.33
2023-03-13T04:30:12.784Z,13.38
2023-03-13T04:31:12.780Z,13.33
2023-03-13T04:32:12.699Z,13.35
2023-03-13T04:33:12.655Z,13.47
2023-03-13T04:34:12.630Z,13.44
2023-03-13T04:35:12.661Z,13.47
2023-03-13T04:36:12.613Z,13.44
2023-03-13T04:37:12.522Z,13.46
2023-03-13T04:38:12.497Z,13.49
2023-03-13T04:39:12.451Z,13.44
2023-03-13T04:40:12.417Z,13.50
2023-03-13T04:41:12.381Z,13.53
2023-03-13T04:42:12.348Z,13.54
2023-03-13T04:43:12.309Z,13.54
2023-03-13T04:44:12.281Z,13.54
2023-03-13T04:45:12.257Z,13.56
2023-03-13T04:46:12.236Z,13.54
2023-03-13T04:47:12.179Z,13.60
2023-03-13T04:48:12.137Z,13.57
2023-03-13T04:49:12.099Z,13.57
2023-03-13T04:50:12.067Z,13.65
2023-03-13T04:51:12.037Z,13.68
2023-03-13T04:52:11.995Z,13.68
2023-03-13T04:53:11.967Z,13.59
2023-03-13T04:54:11.937Z,13.65
2023-03-13T04:55:11.892Z,13.68
2023-03-13T04:56:11.859Z,13.65
2023-03-13T04:57:11.826Z,13.79
2023-03-13T04:58:11.792Z,13.75
2023-03-13T04:59:11.755Z,13.78
2023-03-13T05:00:11.719Z,13.79
2023-03-13T05:01:11.729Z,13.86
2023-03-13T05:02:11.649Z,13.72
2023-03-13T05:03:11.616Z,13.71
2023-03-13T05:04:11.577Z,13.75
2023-03-13T05:05:11.633Z,13.83
2023-03-13T05:06:11.512Z,13.77
2023-03-13T05:07:11.480Z,13.78
2023-03-13T05:08:11.442Z,13.86
2023-03-13T05:09:11.407Z,13.86
2023-03-13T05:10:11.376Z,13.89
2023-03-13T05:11:11.334Z,13.89
2023-03-13T05:12:11.303Z,13.83
2023-03-13T05:13:11.268Z,13.79
2023-03-13T05:14:11.230Z,13.93
2023-03-13T05:15:11.204Z,13.96
2023-03-13T05:16:11.290Z,13.96
2023-03-13T05:17:11.131Z,13.93
2023-03-13T05:18:11.125Z,13.92
2023-03-13T05:19:11.060Z,13.97
2023-03-13T05:20:11.026Z,14.03
2023-03-13T05:21:10.994Z,14.00
2023-03-13T05:22:10.959Z,14.00
2023-03-13T05:23:10.918Z,14.04
2023-03-13T05:24:10.893Z,14.07
2023-03-13T05:25:10.857Z,14.07
2023-03-13T05:26:10.822Z,14.05
2023-03-13T05:27:10.788Z,14.04
2023-03-13T05:28:10.748Z,14.10
2023-03-13T05:29:10.719Z,14.17
2023-03-13T05:30:10.698Z,14.14
2023-03-13T05:31:10.798Z,14.11
2023-03-13T05:32:10.608Z,14.12
2023-03-13T05:33:10.578Z,14.12
2023-03-13T05:34:10.541Z,14.14
2023-03-13T05:35:10.511Z,14.15
2023-03-13T05:36:10.486Z,14.20
2023-03-13T05:37:10.435Z,14.29
2023-03-13T05:38:10.412Z,14.22
2023-03-13T05:39:10.383Z,14.18
2023-03-13T05:40:10.341Z,14.28
2023-03-13T05:41:10.297Z,14.29
2023-03-13T05:42:10.263Z,14.28
2023-03-13T05:43:10.230Z,14.23
2023-03-13T05:44:10.196Z,14.22
2023-03-13T05:45:10.167Z,14.25
2023-03-13T05:46:10.262Z,14.26
2023-03-13T05:47:10.089Z,14.28
2023-03-13T05:48:10.061Z,14.26
2023-03-13T05:49:10.076Z,14.26
2023-03-13T05:50:09.991Z,14.25
2023-03-13T05:51:09.958Z,14.22
2023-03-13T05:52:09.920Z,14.25
2023-03-13T05:53:09.884Z,14.25
2023-03-13T05:54:09.852Z,14.18
2023-03-13T05:55:09.856Z,14.10
2023-03-13T05:56:09.784Z,14.17
2023-03-13T05:57:09.752Z,14.17
2023-03-13T05:58:09.719Z,14.12
2023-03-13T05:59:09.674Z,14.20
2023-03-13T06:00:09.664Z,14.17
2023-03-13T06:01:09.641Z,14.12
2023-03-13T06:02:09.574Z,14.12
2023-03-13T06:03:09.538Z,14.10
2023-03-13T06:04:09.738Z,14.14
2023-03-13T06:05:09.548Z,14.12
2023-03-13T06:06:09.443Z,14.18
2023-03-13T06:07:09.402Z,14.15
2023-03-13T06:08:09.365Z,14.18
2023-03-13T06:09:09.334Z,14.15
2023-03-13T06:10:09.298Z,14.17
2023-03-13T06:11:09.259Z,14.18
2023-03-13T06:12:09.223Z,14.23
2023-03-13T06:13:19.380Z,14.20
2023-03-13T06:14:09.162Z,14.23
2023-03-13T06:15:11.627Z,14.32
2023-03-13T06:16:09.281Z,14.30
2023-03-13T06:17:09.069Z,14.28
2023-03-13T06:18:09.030Z,14.22
2023-03-13T06:19:08.986Z,14.28
2023-03-13T06:20:08.958Z,14.32
2023-03-13T06:21:08.928Z,14.29
2023-03-13T06:22:08.888Z,14.28
2023-03-13T06:23:08.850Z,14.33
2023-03-13T06:24:08.897Z,14.32
2023-03-13T06:25:08.792Z,14.45
2023-03-13T06:26:08.753Z,14.41
2023-03-13T06:27:08.710Z,14.40
2023-03-13T06:28:08.679Z,14.40
2023-03-13T06:29:08.640Z,14.33
2023-03-13T06:30:08.614Z,14.41
2023-03-13T06:31:08.731Z,14.40
2023-03-13T06:32:08.729Z,14.44
2023-03-13T06:33:08.645Z,14.51
2023-03-13T06:34:08.475Z,14.35
2023-03-13T06:35:08.442Z,14.51
2023-03-13T06:36:08.408Z,14.36
2023-03-13T06:37:08.376Z,14.50
2023-03-13T06:38:08.333Z,14.50
2023-03-13T06:39:08.363Z,14.44
2023-03-13T06:40:08.271Z,14.44
2023-03-13T06:41:08.235Z,14.54
2023-03-13T06:42:08.200Z,14.59
2023-03-13T06:43:08.162Z,14.60
2023-03-13T06:44:08.134Z,14.55
2023-03-13T06:45:08.099Z,14.62
2023-03-13T06:46:08.077Z,14.63
2023-03-13T06:47:08.198Z,14.68
2023-03-13T06:48:08.044Z,14.66
2023-03-13T06:49:07.962Z,14.70
2023-03-13T06:50:07.927Z,14.70
2023-03-13T06:51:07.907Z,14.77
2023-03-13T06:52:07.855Z,14.69
2023-03-13T06:53:07.826Z,14.81
2023-03-13T06:54:07.788Z,14.85
2023-03-13T06:55:07.758Z,15.00
2023-03-13T06:56:07.719Z,14.92
2023-03-13T06:57:07.687Z,14.99
2023-03-13T06:58:07.666Z,15.03
2023-03-13T06:59:07.622Z,15.03
2023-03-13T07:00:07.586Z,15.02
2023-03-13T07:01:07.713Z,15.02
2023-03-13T07:02:07.521Z,15.15
2023-03-13T07:03:07.484Z,15.07
2023-03-13T07:04:07.491Z,15.18
2023-03-13T07:05:07.424Z,15.04
2023-03-13T07:06:07.388Z,15.14
2023-03-13T07:07:07.346Z,15.11
2023-03-13T07:08:07.318Z,15.15
2023-03-13T07:09:07.299Z,15.06
2023-03-13T07:10:07.247Z,15.15
2023-03-13T07:11:07.235Z,15.22
2023-03-13T07:12:07.198Z,15.11
2023-03-13T07:13:07.153Z,15.10
2023-03-13T07:14:16.549Z,15.14
2023-03-13T07:15:07.085Z,15.17
2023-03-13T07:16:07.115Z,15.14
2023-03-13T07:17:07.069Z,15.04
2023-03-13T07:18:06.990Z,15.09
2023-03-13T07:19:06.951Z,15.14
2023-03-13T07:20:07.000Z,15.19
2023-03-13T07:21:06.912Z,15.19
2023-03-13T07:22:06.844Z,15.14
2023-03-13T07:23:06.813Z,15.22
2023-03-13T07:24:06.783Z,15.10
2023-03-13T07:25:06.755Z,15.21
2023-03-13T07:26:06.718Z,15.25
2023-03-13T07:27:08.204Z,15.24
2023-03-13T07:28:06.652Z,15.25
2023-03-13T07:29:06.614Z,15.25
2023-03-13T07:30:06.580Z,15.25
2023-03-13T07:31:06.551Z,15.28
2023-03-13T07:32:06.619Z,15.28
2023-03-13T07:33:06.592Z,15.27
2023-03-13T07:34:06.444Z,15.27
2023-03-13T07:35:06.412Z,15.31
2023-03-13T07:36:06.417Z,15.31
2023-03-13T07:37:06.344Z,15.33
2023-03-13T07:38:06.309Z,15.28
2023-03-13T07:39:06.276Z,15.40
2023-03-13T07:40:06.260Z,15.36
2023-03-13T07:41:06.257Z,15.44
2023-03-13T07:42:06.173Z,15.44
2023-03-13T07:43:06.137Z,15.39
2023-03-13T07:44:06.105Z,15.46
2023-03-13T07:45:06.094Z,15.44
2023-03-13T07:46:06.272Z,15.44
2023-03-13T07:47:06.510Z,15.43
2023-03-13T07:48:05.969Z,15.47
2023-03-13T07:49:06.838Z,15.55
2023-03-13T07:50:05.977Z,15.57
2023-03-13T07:51:05.869Z,15.52
2023-03-13T07:52:05.842Z,15.54
2023-03-13T07:53:07.120Z,15.52
2023-03-13T07:54:05.768Z,15.46
2023-03-13T07:55:05.890Z,15.43
2023-03-13T07:56:05.740Z,15.49
2023-03-13T07:57:05.684Z,15.52
2023-03-13T07:58:05.634Z,15.52
2023-03-13T07:59:05.612Z,15.51
2023-03-13T08:00:05.568Z,15.55
2023-03-13T08:01:05.544Z,15.64
2023-03-13T08:02:05.603Z,15.57
2023-03-13T08:03:05.563Z,15.46
2023-03-13T08:04:05.769Z,15.55
2023-03-13T08:05:05.422Z,15.58
2023-03-13T08:06:05.829Z,15.52
2023-03-13T08:07:05.442Z,15.57
2023-03-13T08:08:05.317Z,15.52
2023-03-13T08:09:05.264Z,15.64
2023-03-13T08:10:05.230Z,15.59
2023-03-13T08:11:05.235Z,15.59
2023-03-13T08:12:05.340Z,15.44
2023-03-13T08:13:05.132Z,15.58
2023-03-13T08:14:05.097Z,15.55
2023-03-13T08:15:05.081Z,15.64
2023-03-13T08:16:05.369Z,15.59
2023-03-13T08:17:05.040Z,15.55
2023-03-13T08:18:04.958Z,15.59
2023-03-13T08:19:04.937Z,15.58
2023-03-13T08:20:04.896Z,15.59
2023-03-13T08:21:04.898Z,15.61
2023-03-13T08:22:04.847Z,15.62
2023-03-13T08:23:04.789Z,15.59
2023-03-13T08:24:04.772Z,15.65
2023-03-13T08:25:04.728Z,15.65
2023-03-13T08:26:04.714Z,15.65
2023-03-13T08:27:04.661Z,15.68
2023-03-13T08:28:04.630Z,15.62
2023-03-13T08:29:04.627Z,15.57
2023-03-13T08:30:04.555Z,15.59
2023-03-13T08:31:04.579Z,15.54
2023-03-13T08:32:04.495Z,15.44
2023-03-13T08:33:07.120Z,15.51
2023-03-13T08:34:04.419Z,15.43
2023-03-13T08:35:04.389Z,15.52
2023-03-13T08:36:04.396Z,15.43
2023-03-13T08:37:04.323Z,15.42
2023-03-13T08:38:04.307Z,15.52
2023-03-13T08:39:04.253Z,15.49
2023-03-13T08:40:04.234Z,15.46
2023-03-13T08:41:04.180Z,15.44
2023-03-13T08:42:04.151Z,15.62
2023-03-13T08:43:04.120Z,15.51
2023-03-13T08:44:04.089Z,15.52
2023-03-13T08:45:04.060Z,15.54
2023-03-13T08:46:04.066Z,15.46
2023-03-13T08:47:04.003Z,15.43
2023-03-13T08:48:03.955Z,15.57
2023-03-13T08:49:03.929Z,15.59
2023-03-13T08:50:03.917Z,15.57
2023-03-13T08:51:03.857Z,15.54
2023-03-13T08:52:03.825Z,15.65
2023-03-13T08:53:03.783Z,15.61
2023-03-13T08:54:03.770Z,15.55
2023-03-13T08:55:03.731Z,15.58
2023-03-13T08:56:03.685Z,15.54
2023-03-13T08:57:03.659Z,15.62
2023-03-13T08:58:03.618Z,15.57
2023-03-13T08:59:03.622Z,15.54
2023-03-13T09:00:03.558Z,15.61
2023-03-13T09:01:03.517Z,15.61
2023-03-13T09:02:03.597Z,15.61
2023-03-13T09:03:03.459Z,15.67
2023-03-13T09:04:04.741Z,15.58
2023-03-13T09:05:03.390Z,15.59
2023-03-13T09:06:03.367Z,15.58
2023-03-13T09:07:03.324Z,15.62
2023-03-13T09:08:03.298Z,15.61
2023-03-13T09:09:03.280Z,15.55
2023-03-13T09:10:03.253Z,15.58
2023-03-13T09:11:03.191Z,15.57
2023-03-13T09:12:03.175Z,15.54
2023-03-13T09:13:03.121Z,15.55
2023-03-13T09:14:03.087Z,15.59
2023-03-13T09:15:03.057Z,15.55
2023-03-13T09:16:03.072Z,15.67
2023-03-13T09:17:02.984Z,15.65
2023-03-13T09:18:03.022Z,15.52
2023-03-13T09:19:02.934Z,15.58
2023-03-13T09:20:02.895Z,15.52
2023-03-13T09:21:02.876Z,15.57
2023-03-13T09:22:02.825Z,15.61
2023-03-13T09:23:02.782Z,15.62
2023-03-13T09:24:02.757Z,15.68
2023-03-13T09:25:02.748Z,15.64
2023-03-13T09:26:02.698Z,15.68
2023-03-13T09:27:02.707Z,15.70
2023-03-13T09:28:02.621Z,15.75
2023-03-13T09:29:02.584Z,15.67
2023-03-13T09:30:02.563Z,15.70
2023-03-13T09:31:02.582Z,15.70
2023-03-13T09:32:02.502Z,15.79
2023-03-13T09:33:02.484Z,15.80
2023-03-13T09:34:02.419Z,15.75
2023-03-13T09:35:02.383Z,15.80
2023-03-13T09:36:02.392Z,15.88
2023-03-13T09:37:02.316Z,15.79
2023-03-13T09:38:02.282Z,15.80
2023-03-13T09:39:02.249Z,15.88
2023-03-13T09:40:02.224Z,15.88
2023-03-13T09:41:06.156Z,15.92
2023-03-13T09:42:02.155Z,15.86
2023-03-13T09:43:02.126Z,15.91
2023-03-13T09:44:02.092Z,15.91
2023-03-13T09:45:02.051Z,15.97
2023-03-13T09:46:02.043Z,15.91
2023-03-13T09:47:01.999Z,15.88
2023-03-13T09:48:01.954Z,15.91
2023-03-13T09:49:01.921Z,16.02
2023-03-13T09:50:01.889Z,16.09
2023-03-13T09:51:01.852Z,16.05
2023-03-13T09:52:01.822Z,16.00
2023-03-13T09:53:01.786Z,16.09
2023-03-13T09:54:01.754Z,16.12
2023-03-13T09:55:01.734Z,16.10
2023-03-13T09:56:01.689Z,16.13
2023-03-13T09:57:01.657Z,16.15
2023-03-13T09:58:01.623Z,16.09
2023-03-13T09:59:01.592Z,16.28
2023-03-13T10:00:01.561Z,16.29
2023-03-13T10:01:01.527Z,16.39
2023-03-13T10:02:01.576Z,16.42
2023-03-13T10:03:01.469Z,16.46
2023-03-13T10:04:01.488Z,16.50
2023-03-13T10:05:01.393Z,16.51
2023-03-13T10:06:01.362Z,16.56
2023-03-13T10:07:01.319Z,16.51
2023-03-13T10:08:01.300Z,16.56
2023-03-13T10:09:01.263Z,16.58
2023-03-13T10:10:01.223Z,16.50
2023-03-13T10:11:01.197Z,16.71
2023-03-13T10:12:01.151Z,16.71
2023-03-13T10:13:01.124Z,16.68
2023-03-13T10:14:01.097Z,16.69
2023-03-13T10:15:01.055Z,16.71
2023-03-13T10:16:01.043Z,16.71
2023-03-13T10:17:01.004Z,16.86
2023-03-13T10:18:00.975Z,16.90
2023-03-13T10:19:00.929Z,16.86
2023-03-13T10:20:00.893Z,16.89
2023-03-13T10:21:00.865Z,16.91
2023-03-13T10:22:00.828Z,17.06
2023-03-13T10:23:00.799Z,17.05
2023-03-13T10:24:00.766Z,17.19
2023-03-13T10:25:00.730Z,17.19
2023-03-13T10:26:00.701Z,17.20
2023-03-13T10:27:00.672Z,17.22
2023-03-13T10:28:00.637Z,17.30
2023-03-13T10:29:00.600Z,17.34
2023-03-13T10:30:00.583Z,17.31
2023-03-13T10:31:00.578Z,17.36
2023-03-13T10:32:00.538Z,17.60
2023-03-13T10:33:00.513Z,17.48
2023-03-13T10:34:00.448Z,17.45
2023-03-13T10:35:00.424Z,17.41
2023-03-13T10:36:00.442Z,17.54
2023-03-13T10:37:00.347Z,17.57
2023-03-13T10:38:00.322Z,17.57
2023-03-13T10:39:00.289Z,17.72
2023-03-13T10:40:00.246Z,17.78
2023-03-13T10:41:00.225Z,17.89
2023-03-13T10:42:00.196Z,17.95
2023-03-13T10:43:00.162Z,17.95
2023-03-13T10:44:00.125Z,17.82
2023-03-13T10:45:00.115Z,17.95
2023-03-13T10:46:00.074Z,18.10
2023-03-13T10:47:00.114Z,18.13
2023-03-13T10:48:00.005Z,18.10
2023-03-13T10:48:59.980Z,18.26
2023-03-13T10:49:59.939Z,18.31
2023-03-13T10:51:01.909Z,18.35
2023-03-13T10:51:59.882Z,18.41
2023-03-13T10:52:59.851Z,18.29
2023-03-13T10:53:59.813Z,18.28
2023-03-13T10:54:59.781Z,18.45
2023-03-13T10:55:59.752Z,18.31
2023-03-13T10:56:59.717Z,18.26
2023-03-13T10:57:59.690Z,18.26
2023-03-13T10:58:59.654Z,18.35
2023-03-13T10:59:59.626Z,18.44
2023-03-13T11:00:59.592Z,18.41
2023-03-13T11:01:59.603Z,18.29
2023-03-13T11:02:59.718Z,18.31
2023-03-13T11:03:59.811Z,18.49
2023-03-13T11:04:59.559Z,18.47
2023-03-13T11:05:59.440Z,18.43
2023-03-13T11:06:59.416Z,18.33
2023-03-13T11:07:59.383Z,18.26
2023-03-13T11:08:59.352Z,18.29
2023-03-13T11:09:59.331Z,18.33
2023-03-13T11:10:59.300Z,18.22
2023-03-13T11:11:59.266Z,18.01
2023-03-13T11:12:59.232Z,18.11
2023-03-13T11:13:59.227Z,18.25
2023-03-13T11:14:59.221Z,18.31
2023-03-13T11:15:59.177Z,18.44
2023-03-13T11:16:59.110Z,18.55
2023-03-13T11:17:59.073Z,18.73
2023-03-13T11:18:59.040Z,18.75
2023-03-13T11:19:59.007Z,18.96
2023-03-13T11:21:08.735Z,18.98
2023-03-13T11:21:58.964Z,18.98
2023-03-13T11:22:58.918Z,19.02
2023-03-13T11:23:58.880Z,18.92
2023-03-13T11:24:58.854Z,18.78
2023-03-13T11:25:58.820Z,18.71
2023-03-13T11:27:04.826Z,18.88
2023-03-13T11:27:58.756Z,18.74
2023-03-13T11:28:58.731Z,18.78
2023-03-13T11:29:58.777Z,18.88
2023-03-13T11:30:58.674Z,18.78
2023-03-13T11:31:58.706Z,18.63
2023-03-13T11:32:58.734Z,18.75
2023-03-13T11:33:58.597Z,18.77
2023-03-13T11:34:58.545Z,18.95
2023-03-13T11:35:58.550Z,18.96
2023-03-13T11:36:58.480Z,18.95
2023-03-13T11:37:58.455Z,18.71
2023-03-13T11:38:58.424Z,18.83
2023-03-13T11:39:58.398Z,18.83
2023-03-13T11:40:58.367Z,18.95
2023-03-13T11:41:58.337Z,19.18
2023-03-13T11:42:58.298Z,19.04
2023-03-13T11:43:58.277Z,19.11
2023-03-13T11:44:58.247Z,19.12
2023-03-13T11:45:58.396Z,19.07
2023-03-13T11:46:58.259Z,19.12
2023-03-13T11:47:58.152Z,19.02
2023-03-13T11:48:58.117Z,18.96
2023-03-13T11:49:58.090Z,18.78
2023-03-13T11:50:58.116Z,18.84
2023-03-13T11:51:58.033Z,18.81
2023-03-13T11:52:58.087Z,18.75
2023-03-13T11:53:57.965Z,18.59
2023-03-13T11:54:57.935Z,18.58
2023-03-13T11:55:57.901Z,18.74
2023-03-13T11:56:57.880Z,18.49
2023-03-13T11:57:57.857Z,18.53
2023-03-13T11:58:57.815Z,18.45
2023-03-13T11:59:57.793Z,18.43
2023-03-13T12:00:57.848Z,18.33
2023-03-13T12:01:57.755Z,18.26
2023-03-13T12:02:57.689Z,18.23
2023-03-13T12:03:57.711Z,18.22
2023-03-13T12:04:57.684Z,18.37
2023-03-13T12:05:57.714Z,18.34
2023-03-13T12:06:57.568Z,18.40
2023-03-13T12:07:57.534Z,18.55
2023-03-13T12:08:57.547Z,18.55
2023-03-13T12:09:57.480Z,18.55
2023-03-13T12:10:57.450Z,18.77
2023-03-13T12:11:57.413Z,18.92
2023-03-13T12:12:57.392Z,18.92
2023-03-13T12:13:57.345Z,19.15
2023-03-13T12:14:57.320Z,19.14
2023-03-13T12:15:57.285Z,19.18
2023-03-13T12:16:57.265Z,19.19
2023-03-13T12:17:57.340Z,19.21
2023-03-13T12:18:57.192Z,19.24
2023-03-13T12:19:57.174Z,19.15
2023-03-13T12:20:57.134Z,19.22
2023-03-13T12:21:57.238Z,19.07
2023-03-13T12:22:57.078Z,19.29
2023-03-13T12:23:57.106Z,19.44
2023-03-13T12:24:57.051Z,19.58
2023-03-13T12:25:56.987Z,19.54
2023-03-13T12:26:56.949Z,19.39
2023-03-13T12:27:56.989Z,19.31
2023-03-13T12:28:56.939Z,19.34
2023-03-13T12:29:56.906Z,19.52
2023-03-13T12:30:56.861Z,19.63
2023-03-13T12:31:56.808Z,19.63
2023-03-13T12:32:56.811Z,19.74
2023-03-13T12:33:56.746Z,19.91
2023-03-13T12:34:56.749Z,20.13
2023-03-13T12:35:56.692Z,20.24
2023-03-13T12:36:56.653Z,20.32
2023-03-13T12:37:56.639Z,20.11
2023-03-13T12:38:56.602Z,19.82
2023-03-13T12:39:56.582Z,19.91
2023-03-13T12:40:56.578Z,19.86
2023-03-13T12:41:56.519Z,19.88
2023-03-13T12:42:56.482Z,19.81
2023-03-13T12:44:08.381Z,20.03
2023-03-13T12:44:56.426Z,20.31
2023-03-13T12:45:56.511Z,20.19
2023-03-13T12:46:56.428Z,20.07
2023-03-13T12:47:56.390Z,20.22
2023-03-13T12:48:56.301Z,20.14
2023-03-13T12:49:56.272Z,20.10
2023-03-13T12:50:56.243Z,20.09
2023-03-13T12:51:56.215Z,20.13